You are not logged in, Click here to log in
ICAO: RKPC Country: 韓國濟州島濟州市
Latitude: 33.5104 Longitude: 126.491
Total Arrivals: 28 Total Departures: 25
Latest Arrival: OZ8005 (RKPK-RKPC)CHU. CHUHAO Latest Departure: LJ101 (RKPC-ZSPD)CHU. CHUHAO
Scenery:
METAR : RKPC 180700Z 33006KT 290V010 9999 FEW030 BKN120 28/20 Q1007 NOSIG

濟州國際機場